createdAt,value
2017-04-15T00:00:53.768Z,19.44
2017-04-15T00:01:52.894Z,19.17
2017-04-15T00:02:51.864Z,19.24
2017-04-15T00:03:50.932Z,20.47
2017-04-15T00:04:50.652Z,21.69
2017-04-15T00:05:49.665Z,20.56
2017-04-15T00:06:48.648Z,19.80
2017-04-15T00:07:47.744Z,20.09
2017-04-15T00:08:46.731Z,19.31
2017-04-15T00:09:45.847Z,19.97
2017-04-15T00:10:44.839Z,21.07
2017-04-15T00:11:43.873Z,20.83
2017-04-15T00:12:42.881Z,20.44
2017-04-15T00:13:41.901Z,21.11
2017-04-15T00:14:40.922Z,22.46
2017-04-15T00:15:39.942Z,18.49
2017-04-15T00:16:38.950Z,21.99
2017-04-15T00:17:38.134Z,20.37
2017-04-15T00:18:37.371Z,20.89
2017-04-15T00:19:36.389Z,20.26
2017-04-15T00:20:36.112Z,20.10
2017-04-15T00:21:35.095Z,21.60
2017-04-15T00:22:34.125Z,21.76
2017-04-15T00:23:33.573Z,21.01
2017-04-15T00:24:32.571Z,21.26
2017-04-15T00:25:31.601Z,22.71
2017-04-15T00:26:31.340Z,21.20
2017-04-15T00:27:30.304Z,23.24
2017-04-15T00:28:29.295Z,23.23
2017-04-15T00:29:28.292Z,22.24
2017-04-15T00:30:27.268Z,21.63
2017-04-15T00:31:26.260Z,23.59
2017-04-15T00:32:25.271Z,21.23
2017-04-15T00:33:24.250Z,23.14
2017-04-15T00:34:23.249Z,22.44
2017-04-15T00:35:22.265Z,23.14
2017-04-15T00:36:21.294Z,21.49
2017-04-15T00:37:20.341Z,24.66
2017-04-15T00:38:19.363Z,23.44
2017-04-15T00:39:18.380Z,23.71
2017-04-15T00:40:17.424Z,24.86
2017-04-15T00:41:16.451Z,23.41
2017-04-15T00:42:15.444Z,24.39
2017-04-15T00:43:14.431Z,22.37
2017-04-15T00:44:13.427Z,23.39
2017-04-15T00:45:12.424Z,22.80
2017-04-15T00:46:11.408Z,24.53
2017-04-15T00:47:10.390Z,23.30
2017-04-15T00:48:09.378Z,25.24
2017-04-15T00:49:08.399Z,25.07
2017-04-15T00:50:07.411Z,24.26
2017-04-15T00:51:06.379Z,25.43
2017-04-15T00:52:06.121Z,23.86
2017-04-15T00:53:05.093Z,24.87
2017-04-15T00:54:04.076Z,23.91
2017-04-15T00:55:03.063Z,25.93
2017-04-15T00:56:02.026Z,25.06
2017-04-15T00:57:01.017Z,24.60
2017-04-15T00:57:59.992Z,25.71
2017-04-15T00:58:59.031Z,26.27
2017-04-15T00:59:58.018Z,24.07
2017-04-15T01:00:57.020Z,24.29
2017-04-15T01:01:56.774Z,25.61
2017-04-15T01:02:55.790Z,25.77
2017-04-15T01:03:54.847Z,24.90
2017-04-15T01:04:53.815Z,25.00
2017-04-15T01:05:52.816Z,24.67
2017-04-15T01:06:51.862Z,25.49
2017-04-15T01:07:50.866Z,27.26
2017-04-15T01:08:49.887Z,26.11
2017-04-15T01:09:48.870Z,25.54
2017-04-15T01:10:47.919Z,27.26
2017-04-15T01:11:47.012Z,25.79
2017-04-15T01:12:46.023Z,25.83
2017-04-15T01:13:45.017Z,26.40
2017-04-15T01:14:44.007Z,26.40
2017-04-15T01:15:43.820Z,27.26
2017-04-15T01:16:43.559Z,27.79
2017-04-15T01:17:42.546Z,28.29
2017-04-15T01:18:41.585Z,27.71
2017-04-15T01:19:41.306Z,28.47
2017-04-15T01:20:40.296Z,27.46
2017-04-15T01:21:39.319Z,28.16
2017-04-15T01:22:39.045Z,27.13
2017-04-15T01:23:38.025Z,28.91
2017-04-15T01:24:37.056Z,26.83
2017-04-15T01:25:36.063Z,28.31
2017-04-15T01:26:35.059Z,27.26
2017-04-15T01:27:34.809Z,28.79
2017-04-15T01:28:33.867Z,30.19
2017-04-15T01:29:32.888Z,29.49
2017-04-15T01:30:31.927Z,28.97
2017-04-15T01:31:30.921Z,31.19
2017-04-15T01:32:30.668Z,27.84
2017-04-15T01:33:29.656Z,29.46
2017-04-15T01:34:28.687Z,30.34
2017-04-15T01:35:27.665Z,29.21
2017-04-15T01:36:26.698Z,29.93
2017-04-15T01:37:25.699Z,29.04
2017-04-15T01:38:24.699Z,29.06
2017-04-15T01:39:23.691Z,31.19
2017-04-15T01:40:22.665Z,32.06
2017-04-15T01:41:21.648Z,30.51
2017-04-15T01:42:20.659Z,31.06
2017-04-15T01:43:20.404Z,33.70
2017-04-15T01:44:19.407Z,29.70
2017-04-15T01:45:18.395Z,32.67
2017-04-15T01:46:17.461Z,33.10
2017-04-15T01:47:16.515Z,31.17
2017-04-15T01:48:15.527Z,31.26
2017-04-15T01:49:14.516Z,32.76
2017-04-15T01:50:13.491Z,31.51
2017-04-15T01:51:12.478Z,35.09
2017-04-15T01:52:11.459Z,33.30
2017-04-15T01:53:10.444Z,33.30
2017-04-15T01:54:09.440Z,30.99
2017-04-15T01:55:09.160Z,32.34
2017-04-15T01:56:08.120Z,34.77
2017-04-15T01:57:07.131Z,32.63
2017-04-15T01:58:06.126Z,32.51
2017-04-15T01:59:05.100Z,32.40
2017-04-15T02:00:04.143Z,33.36
2017-04-15T02:01:03.135Z,34.80
2017-04-15T02:02:02.136Z,31.69
2017-04-15T02:03:01.120Z,33.54
2017-04-15T02:04:00.088Z,33.30
2017-04-15T02:04:59.800Z,34.74
2017-04-15T02:05:58.808Z,32.81
2017-04-15T02:06:57.780Z,33.70
2017-04-15T02:07:56.758Z,33.44
2017-04-15T02:08:55.767Z,32.59
2017-04-15T02:09:54.791Z,33.46
2017-04-15T02:10:53.781Z,32.07
2017-04-15T02:11:52.821Z,34.09
2017-04-15T02:12:51.830Z,34.79
2017-04-15T02:13:50.805Z,33.10
2017-04-15T02:14:49.799Z,35.30
2017-04-15T02:15:49.548Z,34.33
2017-04-15T02:16:48.508Z,35.46
2017-04-15T02:17:48.235Z,34.69
2017-04-15T02:18:47.195Z,33.84
2017-04-15T02:19:46.964Z,34.53
2017-04-15T02:20:45.935Z,34.50
2017-04-15T02:21:44.947Z,34.39
2017-04-15T02:22:43.903Z,35.26
2017-04-15T02:23:42.929Z,35.54
2017-04-15T02:24:42.698Z,34.40
2017-04-15T02:25:41.668Z,34.66
2017-04-15T02:26:40.640Z,34.86
2017-04-15T02:27:39.637Z,36.09
2017-04-15T02:28:38.611Z,35.57
2017-04-15T02:29:37.688Z,34.90
2017-04-15T02:30:36.668Z,35.53
2017-04-15T02:31:35.680Z,35.54
2017-04-15T02:32:34.657Z,37.91
2017-04-15T02:33:33.669Z,35.96
2017-04-15T02:34:32.949Z,36.67
2017-04-15T02:35:31.995Z,36.96
2017-04-15T02:36:30.999Z,34.96
2017-04-15T02:37:30.008Z,34.41
2017-04-15T02:38:29.016Z,37.67
2017-04-15T02:39:27.988Z,36.83
2017-04-15T02:40:27.113Z,35.53
2017-04-15T02:41:26.143Z,36.47
2017-04-15T02:42:25.183Z,36.01
2017-04-15T02:43:24.164Z,35.29
2017-04-15T02:44:23.159Z,36.50
2017-04-15T02:45:22.162Z,36.66
2017-04-15T02:46:21.134Z,36.73
2017-04-15T02:47:20.871Z,36.71
2017-04-15T02:48:19.902Z,36.33
2017-04-15T02:49:18.885Z,34.37
2017-04-15T02:50:17.888Z,38.31
2017-04-15T02:51:16.881Z,37.91
2017-04-15T02:52:15.873Z,36.16
2017-04-15T02:53:14.882Z,37.80
2017-04-15T02:54:14.588Z,37.21
2017-04-15T02:55:14.334Z,37.09
2017-04-15T02:56:13.336Z,37.07
2017-04-15T02:57:12.347Z,37.31
2017-04-15T02:58:11.356Z,37.10
2017-04-15T02:59:10.387Z,35.39
2017-04-15T03:00:09.472Z,38.10
2017-04-15T03:01:08.512Z,37.11
2017-04-15T03:02:07.595Z,35.47
2017-04-15T03:03:06.594Z,38.90
2017-04-15T03:04:05.692Z,37.77
2017-04-15T03:05:04.683Z,38.41
2017-04-15T03:06:03.707Z,37.61
2017-04-15T03:07:02.692Z,37.39
2017-04-15T03:08:01.660Z,36.27
2017-04-15T03:09:00.628Z,37.03
2017-04-15T03:09:59.611Z,38.03
2017-04-15T03:10:58.627Z,37.97
2017-04-15T03:11:57.644Z,38.63
2017-04-15T03:12:56.635Z,38.13
2017-04-15T03:13:55.646Z,38.71
2017-04-15T03:14:54.676Z,38.04
2017-04-15T03:15:54.390Z,39.36
2017-04-15T03:16:53.407Z,37.27
2017-04-15T03:17:53.739Z,39.50
2017-04-15T03:18:52.822Z,35.54
2017-04-15T03:19:51.830Z,36.66
2017-04-15T03:20:50.861Z,37.77
2017-04-15T03:21:50.618Z,37.01
2017-04-15T03:22:49.686Z,36.34
2017-04-15T03:23:48.736Z,37.64
2017-04-15T03:24:47.773Z,35.87
2017-04-15T03:25:46.805Z,37.16
2017-04-15T03:26:45.826Z,38.81
2017-04-15T03:27:44.847Z,37.54
2017-04-15T03:28:44.109Z,38.01
2017-04-15T03:29:43.195Z,37.31
2017-04-15T03:30:42.215Z,38.23
2017-04-15T03:31:41.252Z,39.24
2017-04-15T03:32:40.285Z,38.66
2017-04-15T03:33:40.077Z,38.70
2017-04-15T03:34:39.153Z,36.93
2017-04-15T03:35:38.163Z,37.03
2017-04-15T03:36:37.971Z,37.91
2017-04-15T03:37:37.730Z,37.47
2017-04-15T03:38:37.525Z,36.57
2017-04-15T03:39:36.552Z,37.76
2017-04-15T03:40:36.336Z,37.54
2017-04-15T03:41:35.356Z,38.77
2017-04-15T03:42:34.386Z,38.27
2017-04-15T03:43:33.438Z,38.13
2017-04-15T03:44:32.494Z,36.20
2017-04-15T03:45:32.247Z,37.31
2017-04-15T03:46:31.386Z,39.56
2017-04-15T03:47:31.189Z,36.67
2017-04-15T03:48:30.951Z,36.99
2017-04-15T03:49:29.988Z,38.26
2017-04-15T03:50:28.997Z,38.26
2017-04-15T03:51:28.059Z,38.59
2017-04-15T03:52:27.120Z,38.23
2017-04-15T03:53:26.508Z,36.01
2017-04-15T03:54:25.542Z,38.66
2017-04-15T03:55:24.544Z,37.69
2017-04-15T03:56:23.564Z,38.27
2017-04-15T03:57:22.595Z,38.91
2017-04-15T03:58:21.634Z,38.27
2017-04-15T03:59:20.686Z,37.84
2017-04-15T04:00:19.728Z,37.86
2017-04-15T04:01:18.769Z,37.26
2017-04-15T04:02:17.800Z,36.46
2017-04-15T04:03:16.823Z,36.56
2017-04-15T04:04:16.046Z,36.87
2017-04-15T04:05:15.101Z,37.71
2017-04-15T04:06:14.214Z,37.56
2017-04-15T04:07:13.252Z,40.50
2017-04-15T04:08:12.307Z,37.81
2017-04-15T04:09:11.334Z,37.17
2017-04-15T04:10:10.375Z,38.57
2017-04-15T04:11:09.459Z,37.94
2017-04-15T04:12:08.596Z,38.63
2017-04-15T04:13:07.580Z,37.79
2017-04-15T04:14:06.638Z,37.90
2017-04-15T04:15:05.792Z,37.36
2017-04-15T04:16:04.790Z,37.71
2017-04-15T04:17:04.552Z,37.39
2017-04-15T04:18:03.525Z,36.61
2017-04-15T04:19:02.506Z,36.07
2017-04-15T04:20:02.264Z,38.30
2017-04-15T04:21:01.283Z,36.66
2017-04-15T04:22:00.350Z,37.71
2017-04-15T04:22:59.352Z,36.51
2017-04-15T04:23:58.360Z,37.79
2017-04-15T04:24:57.321Z,39.20
2017-04-15T04:25:56.331Z,37.66
2017-04-15T04:26:55.349Z,39.09
2017-04-15T04:27:54.352Z,37.69
2017-04-15T04:28:53.421Z,36.77
2017-04-15T04:29:52.455Z,37.69
2017-04-15T04:30:51.479Z,38.99
2017-04-15T04:32:55.923Z,35.73
2017-04-15T04:33:54.924Z,37.41
2017-04-15T04:34:53.998Z,37.94
2017-04-15T04:35:53.069Z,39.66
2017-04-15T04:36:52.274Z,36.91
2017-04-15T04:37:51.287Z,36.77
2017-04-15T04:38:50.434Z,37.63
2017-04-15T04:39:49.461Z,37.29
2017-04-15T04:40:48.468Z,37.70
2017-04-15T04:41:47.512Z,38.84
2017-04-15T04:42:47.268Z,38.47
2017-04-15T04:43:46.312Z,39.43
2017-04-15T04:44:45.375Z,36.61
2017-04-15T04:45:44.476Z,35.04
2017-04-15T04:46:43.495Z,35.97
2017-04-15T04:47:42.510Z,39.54
2017-04-15T04:48:41.515Z,38.60
2017-04-15T04:49:40.558Z,37.41
2017-04-15T04:50:39.585Z,37.74
2017-04-15T04:51:38.572Z,38.43
2017-04-15T04:52:37.620Z,38.23
2017-04-15T04:53:36.649Z,38.61
2017-04-15T04:54:35.995Z,37.79
2017-04-15T04:55:35.821Z,36.77
2017-04-15T04:56:34.868Z,38.87
2017-04-15T04:57:33.882Z,36.33
2017-04-15T04:58:33.891Z,37.17
2017-04-15T05:00:39.769Z,37.43
2017-04-15T05:01:38.764Z,38.11
2017-04-15T05:02:37.780Z,37.76
2017-04-15T05:03:37.484Z,38.56
2017-04-15T05:04:36.646Z,38.44
2017-04-15T05:05:35.732Z,36.90
2017-04-15T05:06:34.889Z,37.41
2017-04-15T05:07:33.933Z,37.89
2017-04-15T05:08:32.956Z,37.07
2017-04-15T05:09:31.935Z,37.04
2017-04-15T05:10:30.904Z,35.59
2017-04-15T05:11:29.898Z,38.71
2017-04-15T05:12:28.879Z,39.03
2017-04-15T05:13:27.863Z,39.01
2017-04-15T05:14:28.488Z,37.74
2017-04-15T05:15:27.527Z,38.29
2017-04-15T05:16:26.926Z,38.70
2017-04-15T05:17:25.968Z,37.91
2017-04-15T05:18:24.969Z,39.37
2017-04-15T05:19:23.984Z,37.07
2017-04-15T05:20:23.095Z,38.16
2017-04-15T05:21:22.151Z,38.09
2017-04-15T05:22:21.188Z,36.81
2017-04-15T05:23:20.206Z,37.51
2017-04-15T05:28:46.211Z,36.13
2017-04-15T05:29:45.272Z,35.29
2017-04-15T05:30:44.843Z,36.40
2017-04-15T05:31:44.445Z,38.21
2017-04-15T05:32:43.486Z,36.34
2017-04-15T05:33:42.486Z,36.57
2017-04-15T05:34:41.558Z,38.10
2017-04-15T05:35:40.545Z,37.17
2017-04-15T05:36:39.572Z,36.57
2017-04-15T05:37:38.648Z,37.74
2017-04-15T05:38:37.657Z,38.37
2017-04-15T05:39:36.661Z,36.24
2017-04-15T05:40:35.655Z,37.57
2017-04-15T05:41:34.636Z,38.30
2017-04-15T05:42:33.611Z,39.19
2017-04-15T05:43:32.603Z,38.14
2017-04-15T05:44:31.630Z,38.49
2017-04-15T05:45:30.606Z,37.50
2017-04-15T05:46:29.666Z,37.29
2017-04-15T05:47:28.655Z,36.67
2017-04-15T05:48:27.640Z,36.36
2017-04-15T05:49:27.371Z,36.80
2017-04-15T05:50:26.401Z,37.37
2017-04-15T05:51:25.482Z,35.83
2017-04-15T05:52:24.523Z,37.73
2017-04-15T05:53:23.526Z,38.63
2017-04-15T05:54:22.524Z,37.30
2017-04-15T05:55:21.500Z,38.01
2017-04-15T05:56:20.505Z,36.53
2017-04-15T05:57:19.528Z,39.33
2017-04-15T05:58:18.622Z,38.69
2017-04-15T05:59:17.680Z,36.97
2017-04-15T06:00:17.480Z,39.16
2017-04-15T06:01:16.481Z,37.37
2017-04-15T06:02:15.564Z,36.76
2017-04-15T06:03:14.525Z,39.71
2017-04-15T06:04:13.601Z,35.84
2017-04-15T06:05:12.579Z,37.81
2017-04-15T06:06:11.618Z,37.94
2017-04-15T06:07:10.608Z,36.99
2017-04-15T06:08:09.723Z,37.33
2017-04-15T06:09:08.714Z,35.61
2017-04-15T06:10:07.748Z,36.40
2017-04-15T06:11:07.246Z,36.57
2017-04-15T06:12:06.666Z,35.31
2017-04-15T06:13:06.201Z,39.44
2017-04-15T06:14:05.284Z,37.53
2017-04-15T06:15:04.329Z,36.91
2017-04-15T06:16:03.353Z,37.29
2017-04-15T06:17:02.323Z,37.07
2017-04-15T06:18:01.304Z,36.56
2017-04-15T06:19:00.305Z,38.37
2017-04-15T06:19:59.305Z,36.87
2017-04-15T06:20:58.282Z,37.91
2017-04-15T06:21:58.046Z,39.59
2017-04-15T06:22:57.051Z,36.29
2017-04-15T06:23:56.045Z,36.14
2017-04-15T06:24:55.811Z,36.90
2017-04-15T06:25:54.793Z,36.83
2017-04-15T06:26:53.784Z,36.59
2017-04-15T06:27:52.787Z,34.67
2017-04-15T06:28:51.819Z,36.09
2017-04-15T06:29:50.796Z,36.90
2017-04-15T06:30:49.785Z,36.24
2017-04-15T06:31:48.783Z,39.56
2017-04-15T06:32:47.824Z,36.86
2017-04-15T06:33:46.851Z,39.00
2017-04-15T06:34:45.850Z,37.13
2017-04-15T06:35:44.850Z,37.70
2017-04-15T06:36:43.869Z,38.29
2017-04-15T06:37:42.955Z,36.34
2017-04-15T06:38:41.939Z,37.03
2017-04-15T06:39:40.976Z,37.63
2017-04-15T06:40:39.969Z,38.73
2017-04-15T06:41:38.959Z,37.56
2017-04-15T06:42:37.974Z,37.86
2017-04-15T06:43:36.998Z,37.57
2017-04-15T06:44:36.031Z,37.44
2017-04-15T06:45:35.774Z,36.56
2017-04-15T06:46:35.188Z,39.24
2017-04-15T06:47:34.377Z,37.60
2017-04-15T06:48:33.388Z,36.16
2017-04-15T06:49:32.532Z,36.84
2017-04-15T06:50:31.570Z,36.49
2017-04-15T06:51:31.295Z,38.21
2017-04-15T06:52:30.276Z,36.63
2017-04-15T06:53:29.286Z,36.66
2017-04-15T06:54:28.269Z,37.93
2017-04-15T06:55:27.233Z,36.76
2017-04-15T06:56:26.221Z,36.76
2017-04-15T06:57:25.228Z,36.41
2017-04-15T06:58:24.227Z,36.64
2017-04-15T06:59:23.215Z,38.13
2017-04-15T07:00:22.740Z,37.80
2017-04-15T07:01:21.769Z,34.54
2017-04-15T07:02:20.881Z,36.59
2017-04-15T07:09:50.512Z,32.26
2017-04-15T07:10:49.486Z,32.23
2017-04-15T07:13:48.092Z,30.77
2017-04-15T07:14:47.091Z,34.60
2017-04-15T07:15:46.812Z,34.24
2017-04-15T07:16:45.796Z,34.29
2017-04-15T07:18:48.937Z,34.49
2017-04-15T07:19:48.316Z,35.84
2017-04-15T07:20:47.276Z,33.34
2017-04-15T07:21:46.237Z,34.97
2017-04-15T07:22:45.196Z,34.27
2017-04-15T07:23:44.912Z,35.20
2017-04-15T07:24:43.867Z,35.89
2017-04-15T07:28:46.463Z,35.80
2017-04-15T07:29:45.431Z,33.99
2017-04-15T07:30:44.405Z,34.39
2017-04-15T07:38:49.291Z,36.13
2017-04-15T07:39:48.267Z,32.51
2017-04-15T07:40:48.155Z,33.07
2017-04-15T07:41:47.171Z,34.20
2017-04-15T07:42:46.131Z,35.51
2017-04-15T07:43:45.129Z,35.04
2017-04-15T07:44:44.144Z,33.66
2017-04-15T07:45:43.110Z,35.67
2017-04-15T07:46:42.823Z,33.89
2017-04-15T07:47:41.816Z,35.66
2017-04-15T07:48:40.771Z,37.71
2017-04-15T07:49:40.464Z,36.40
2017-04-15T07:50:40.225Z,35.14
2017-04-15T07:51:39.208Z,34.57
2017-04-15T07:52:38.185Z,37.17
2017-04-15T07:53:37.529Z,36.86
2017-04-15T07:54:36.500Z,38.17
2017-04-15T07:55:35.469Z,35.86
2017-04-15T07:56:34.495Z,35.97
2017-04-15T07:57:33.451Z,35.69
2017-04-15T07:58:32.444Z,36.30
2017-04-15T07:59:32.146Z,35.53
2017-04-15T08:00:31.120Z,38.66
2017-04-15T08:01:30.098Z,38.10
2017-04-15T08:02:29.152Z,36.13
2017-04-15T08:03:28.123Z,39.41
2017-04-15T08:04:27.090Z,40.10
2017-04-15T08:05:26.069Z,40.06
2017-04-15T08:06:25.059Z,40.13
2017-04-15T08:07:24.044Z,40.63
2017-04-15T08:08:23.056Z,38.83
2017-04-15T08:09:22.077Z,39.96
2017-04-15T08:10:21.047Z,41.49
2017-04-15T08:11:20.020Z,42.83
2017-04-15T08:12:18.995Z,46.66
2017-04-15T08:13:17.961Z,41.84
2017-04-15T08:14:16.964Z,48.46
2017-04-15T08:15:15.929Z,44.39
2017-04-15T08:16:14.920Z,44.13
2017-04-15T08:17:14.741Z,40.14
2017-04-15T08:18:14.148Z,39.37
2017-04-15T08:19:14.223Z,42.97
2017-04-15T08:20:13.931Z,40.13
2017-04-15T08:21:14.390Z,41.74
2017-04-15T08:22:14.256Z,42.64
2017-04-15T08:32:48.542Z,45.20
2017-04-15T08:33:47.877Z,50.29
2017-04-15T08:34:47.222Z,43.37
2017-04-15T08:35:46.564Z,43.93
2017-04-15T08:37:16.409Z,45.00
2017-04-15T08:38:15.759Z,44.62
2017-04-15T08:39:15.095Z,45.67
2017-04-15T08:40:14.416Z,49.57
2017-04-15T08:41:13.726Z,49.40
2017-04-15T08:42:13.055Z,47.31
2017-04-15T08:43:12.448Z,46.06
2017-04-15T08:44:11.807Z,46.21
2017-04-15T08:45:11.164Z,48.09
2017-04-15T08:46:10.505Z,47.30
2017-04-15T08:47:09.836Z,47.99
2017-04-15T08:48:09.155Z,47.49
2017-04-15T08:49:08.475Z,49.27
2017-04-15T08:50:07.802Z,48.01
2017-04-15T08:51:07.163Z,48.14
2017-04-15T08:52:06.504Z,48.43
2017-04-15T08:53:05.848Z,48.67
2017-04-15T08:54:05.161Z,46.91
2017-04-15T08:55:04.488Z,47.21
2017-04-15T08:56:03.852Z,46.74
2017-04-15T08:57:03.195Z,42.84
2017-04-15T08:58:02.528Z,46.79
2017-04-15T08:59:01.843Z,46.80
2017-04-15T09:00:01.151Z,47.06
2017-04-15T09:01:00.472Z,45.74
2017-04-15T09:01:59.845Z,44.91
2017-04-15T09:02:59.205Z,44.40
2017-04-15T09:03:58.518Z,45.96
2017-04-15T09:04:57.826Z,46.00
2017-04-15T09:05:57.145Z,43.24
2017-04-15T09:06:56.564Z,43.64
2017-04-15T09:07:55.903Z,45.44
2017-04-15T09:08:55.228Z,42.81
2017-04-15T09:09:55.040Z,43.70
2017-04-15T09:10:54.406Z,45.21
2017-04-15T09:11:53.723Z,44.66
2017-04-15T09:12:53.031Z,44.61
2017-04-15T09:13:52.367Z,45.74
2017-04-15T09:14:51.685Z,45.13
2017-04-15T09:15:51.027Z,43.79
2017-04-15T09:16:50.338Z,46.94
2017-04-15T09:17:49.665Z,45.74
2017-04-15T09:18:48.980Z,44.96
2017-04-15T09:19:48.365Z,46.44
2017-04-15T09:20:47.687Z,45.00
2017-04-15T09:21:47.044Z,44.34
2017-04-15T09:22:46.415Z,45.60
2017-04-15T09:23:45.808Z,44.09
2017-04-15T09:24:45.127Z,48.33
2017-04-15T09:25:44.466Z,45.81
2017-04-15T09:26:43.816Z,46.00
2017-04-15T09:27:43.122Z,44.20
2017-04-15T09:28:42.498Z,41.96
2017-04-15T09:29:41.831Z,44.16
2017-04-15T09:30:41.248Z,44.07
2017-04-15T09:31:40.647Z,42.70
2017-04-15T09:32:39.998Z,43.11
2017-04-15T09:33:39.323Z,43.30
2017-04-15T09:34:38.659Z,42.57
2017-04-15T09:35:38.026Z,42.74
2017-04-15T09:36:37.363Z,46.00
2017-04-15T09:37:36.701Z,43.96
2017-04-15T09:38:36.016Z,44.93
2017-04-15T09:39:35.366Z,44.47
2017-04-15T09:40:34.710Z,43.27
2017-04-15T09:41:34.031Z,42.10
2017-04-15T09:42:33.383Z,43.39
2017-04-15T09:43:32.750Z,44.53
2017-04-15T09:44:32.075Z,43.74
2017-04-15T09:45:31.383Z,43.29
2017-04-15T09:46:30.707Z,41.37
2017-04-15T09:47:30.091Z,44.97
2017-04-15T09:48:48.280Z,45.23
2017-04-15T09:49:47.602Z,49.70
2017-04-15T09:50:46.923Z,45.89
2017-04-15T09:51:46.234Z,45.33
2017-04-15T09:52:45.551Z,46.14
2017-04-15T09:53:44.879Z,46.87
2017-04-15T09:54:44.201Z,44.81
2017-04-15T09:55:43.538Z,46.29
2017-04-15T09:56:42.863Z,40.83
2017-04-15T09:57:42.189Z,44.03
2017-04-15T09:58:41.511Z,44.71
2017-04-15T09:59:40.861Z,42.84
2017-04-15T10:00:40.196Z,46.44
2017-04-15T10:01:39.538Z,45.53
2017-04-15T10:02:38.875Z,46.11
2017-04-15T10:03:38.221Z,43.39
2017-04-15T10:04:37.530Z,45.23
2017-04-15T10:05:36.855Z,42.43
2017-04-15T10:06:36.343Z,44.47
2017-04-15T10:07:35.671Z,43.64
2017-04-15T10:08:35.115Z,41.29
2017-04-15T10:09:35.870Z,42.99
2017-04-15T10:10:35.206Z,43.59
2017-04-15T10:11:34.567Z,41.04
2017-04-15T10:12:33.898Z,43.43
2017-04-15T10:13:33.306Z,42.86
2017-04-15T10:14:32.709Z,42.03
2017-04-15T10:15:32.028Z,43.26
2017-04-15T10:16:31.366Z,42.57
2017-04-15T10:17:30.718Z,44.73
2017-04-15T10:18:30.088Z,44.09
2017-04-15T10:19:29.419Z,44.17
2017-04-15T10:20:28.738Z,45.30
2017-04-15T10:21:28.047Z,44.74
2017-04-15T10:22:27.405Z,45.71
2017-04-15T10:23:26.798Z,44.29
2017-04-15T10:24:26.109Z,44.80
2017-04-15T10:25:25.433Z,47.07
2017-04-15T10:26:24.743Z,46.64
2017-04-15T10:27:24.127Z,43.97
2017-04-15T10:28:23.521Z,45.51
2017-04-15T10:29:22.878Z,46.00
2017-04-15T10:30:22.209Z,44.24
2017-04-15T10:31:21.535Z,47.39
2017-04-15T10:32:20.865Z,45.50
2017-04-15T10:33:20.305Z,47.67
2017-04-15T10:34:19.672Z,48.64
2017-04-15T10:35:19.047Z,48.29
2017-04-15T10:36:18.372Z,47.70
2017-04-15T10:37:17.687Z,48.57
2017-04-15T10:38:17.017Z,48.13
2017-04-15T10:39:16.360Z,47.73
2017-04-15T10:40:15.683Z,49.13
2017-04-15T10:41:15.182Z,47.39
2017-04-15T10:42:14.521Z,49.37
2017-04-15T10:43:13.839Z,49.74
2017-04-15T10:44:13.183Z,48.67
2017-04-15T10:45:12.529Z,44.96
2017-04-15T10:46:11.843Z,48.90
2017-04-15T10:47:11.814Z,48.49
2017-04-15T10:48:11.147Z,43.69
2017-04-15T10:49:10.454Z,46.11
2017-04-15T10:50:09.775Z,44.56
2017-04-15T10:51:09.099Z,48.74
2017-04-15T10:52:08.409Z,46.50
2017-04-15T10:53:07.746Z,45.99
2017-04-15T10:54:07.102Z,45.09
2017-04-15T10:55:06.409Z,47.07
2017-04-15T10:56:05.722Z,45.50
2017-04-15T10:57:05.038Z,48.77
2017-04-15T10:58:04.361Z,46.10
2017-04-15T10:59:03.713Z,45.19
2017-04-15T11:00:03.031Z,45.33
2017-04-15T11:01:02.343Z,47.66
2017-04-15T11:02:01.667Z,47.70
2017-04-15T11:03:00.999Z,49.14
2017-04-15T11:04:00.318Z,47.90
2017-04-15T11:04:59.659Z,50.14
2017-04-15T11:05:58.976Z,50.83
2017-04-15T11:06:58.417Z,50.41
2017-04-15T11:07:57.751Z,50.13
2017-04-15T11:08:57.132Z,49.06
2017-04-15T11:09:56.443Z,52.19
2017-04-15T11:10:55.775Z,48.33
2017-04-15T11:11:55.097Z,50.19
2017-04-15T11:12:54.427Z,48.01
2017-04-15T11:13:53.821Z,47.13
2017-04-15T11:14:53.245Z,46.21
2017-04-15T11:15:52.575Z,46.16
2017-04-15T11:16:51.920Z,44.60
2017-04-15T11:17:51.248Z,46.16
2017-04-15T11:18:50.578Z,45.43
2017-04-15T11:19:49.930Z,45.01
2017-04-15T11:20:49.267Z,45.50
2017-04-15T11:21:48.610Z,46.40
2017-04-15T11:22:47.972Z,46.23
2017-04-15T11:23:47.279Z,43.76
2017-04-15T11:24:46.615Z,43.26
2017-04-15T11:25:45.943Z,43.10
2017-04-15T11:26:45.271Z,44.16
2017-04-15T11:27:44.587Z,43.93
2017-04-15T11:28:43.958Z,43.84
2017-04-15T11:29:43.278Z,45.83
2017-04-15T11:30:42.599Z,43.69
2017-04-15T11:31:41.945Z,45.50
2017-04-15T11:32:41.367Z,43.30
2017-04-15T11:33:40.715Z,44.09
2017-04-15T11:34:40.095Z,40.86
2017-04-15T11:35:39.420Z,44.10
2017-04-15T11:36:38.734Z,43.89
2017-04-15T11:37:38.071Z,43.00
2017-04-15T11:38:37.403Z,43.50
2017-04-15T11:39:36.714Z,44.69
2017-04-15T11:40:36.042Z,43.69
2017-04-15T11:41:35.388Z,42.77
2017-04-15T11:42:34.736Z,43.43
2017-04-15T11:43:34.091Z,42.24
2017-04-15T11:44:33.419Z,42.17
2017-04-15T11:45:32.756Z,40.99
2017-04-15T11:46:32.177Z,42.76
2017-04-15T11:47:31.516Z,41.56
2017-04-15T11:48:30.952Z,43.39
2017-04-15T11:49:30.271Z,43.19
2017-04-15T11:50:29.603Z,43.10
2017-04-15T11:51:28.930Z,43.07
2017-04-15T11:52:28.278Z,40.97
2017-04-15T11:53:28.067Z,42.34
2017-04-15T11:54:27.403Z,44.06
2017-04-15T11:55:26.737Z,40.74
2017-04-15T11:56:26.060Z,42.80
2017-04-15T11:57:25.406Z,40.96
2017-04-15T11:58:24.776Z,40.20
2017-04-15T11:59:24.110Z,41.86
2017-04-15T12:00:23.429Z,41.57
2017-04-15T12:01:22.786Z,42.67
2017-04-15T12:02:22.351Z,43.09
2017-04-15T12:03:21.740Z,42.81
2017-04-15T12:04:21.173Z,38.70
2017-04-15T12:05:20.492Z,41.09
2017-04-15T12:06:19.818Z,39.53
2017-04-15T12:07:19.211Z,39.53
2017-04-15T12:08:18.570Z,37.69
2017-04-15T12:09:17.890Z,39.33
2017-04-15T12:10:17.224Z,37.33
2017-04-15T12:11:16.560Z,39.09
2017-04-15T12:12:15.863Z,36.20
2017-04-15T12:13:15.199Z,33.91
2017-04-15T12:14:14.532Z,33.67
2017-04-15T12:15:13.873Z,34.91
2017-04-15T12:16:13.202Z,35.24
2017-04-15T12:17:12.614Z,33.76
2017-04-15T12:18:11.941Z,31.07
2017-04-15T12:19:11.279Z,30.43
2017-04-15T12:20:10.698Z,31.50
2017-04-15T12:21:10.053Z,27.76
2017-04-15T12:22:09.400Z,30.19
2017-04-15T12:23:08.771Z,30.03
2017-04-15T12:24:08.092Z,28.80
2017-04-15T12:25:07.412Z,30.11
2017-04-15T12:26:06.719Z,29.93
2017-04-15T12:27:06.076Z,29.73
2017-04-15T12:28:05.455Z,29.01
2017-04-15T12:29:05.136Z,30.80
2017-04-15T12:30:04.874Z,23.49
2017-04-15T12:31:03.935Z,22.11
2017-04-15T12:32:02.911Z,22.06
2017-04-15T12:33:01.892Z,22.06
2017-04-15T12:34:00.903Z,23.91
2017-04-15T12:34:59.873Z,22.90
2017-04-15T12:35:58.845Z,23.54
2017-04-15T12:36:57.858Z,22.36
2017-04-15T12:37:56.837Z,24.81
2017-04-15T12:38:55.840Z,22.93
2017-04-15T12:39:54.865Z,22.16
2017-04-15T12:40:54.592Z,23.84
2017-04-15T12:41:53.589Z,22.66
2017-04-15T12:42:52.555Z,22.84
2017-04-15T12:43:51.535Z,24.49
2017-04-15T12:44:50.501Z,23.73
2017-04-15T12:45:49.544Z,23.40
2017-04-15T12:46:48.626Z,23.50
2017-04-15T12:47:47.620Z,23.27
2017-04-15T12:48:46.597Z,22.11
2017-04-15T12:49:45.599Z,22.31
2017-04-15T12:50:44.615Z,21.36
2017-04-15T12:51:43.609Z,19.69
2017-04-15T12:52:42.578Z,20.96
2017-04-15T12:53:41.547Z,20.66
2017-04-15T12:54:40.524Z,18.93
2017-04-15T12:55:39.508Z,20.24
2017-04-15T12:56:38.491Z,20.90
2017-04-15T12:57:37.531Z,19.50
2017-04-15T12:58:36.513Z,20.19
2017-04-15T12:59:36.228Z,20.77
2017-04-15T13:00:35.232Z,21.51
2017-04-15T13:01:34.265Z,22.66
2017-04-15T13:02:33.376Z,23.24
2017-04-15T13:03:33.120Z,23.39
2017-04-15T13:04:32.189Z,24.71
2017-04-15T13:05:31.160Z,26.77
2017-04-15T13:06:30.164Z,21.89
2017-04-15T13:07:29.432Z,21.10
2017-04-15T13:08:28.531Z,18.46
2017-04-15T13:09:27.542Z,16.49
2017-04-15T13:10:26.529Z,13.97
2017-04-15T13:11:25.525Z,12.04
2017-04-15T13:12:24.535Z,11.80
2017-04-15T13:13:23.542Z,9.37
2017-04-15T13:14:22.575Z,8.74
2017-04-15T13:15:21.637Z,6.86
2017-04-15T13:16:20.952Z,6.56
2017-04-15T13:17:19.942Z,5.34
2017-04-15T13:18:18.930Z,5.83
2017-04-15T13:19:18.709Z,4.96